createdAt,value
2024-01-06T00:00:58.601Z,9.52
2024-01-06T00:03:27.061Z,2.90
2024-01-06T00:05:55.256Z,3.00
2024-01-06T00:08:28.093Z,2.15
2024-01-06T00:10:56.496Z,3.55
2024-01-06T00:13:24.999Z,3.80
2024-01-06T00:15:53.218Z,4.82
2024-01-06T00:18:21.628Z,4.28
2024-01-06T00:20:50.080Z,8.98
2024-01-06T00:23:18.232Z,2.67
2024-01-06T00:25:47.850Z,5.25
2024-01-06T00:28:16.240Z,2.85
2024-01-06T00:30:44.789Z,4.95
2024-01-06T00:33:13.299Z,1.90
2024-01-06T00:35:41.641Z,7.38
2024-01-06T00:38:09.847Z,5.32
2024-01-06T00:40:39.497Z,2.88
2024-01-06T00:43:09.236Z,4.68
2024-01-06T00:45:37.770Z,3.30
2024-01-06T00:48:07.224Z,3.10
2024-01-06T00:50:35.633Z,16.55
2024-01-06T00:53:03.852Z,3.53
2024-01-06T00:55:31.993Z,3.08
2024-01-06T00:58:00.065Z,4.13
2024-01-06T01:00:29.725Z,4.70
2024-01-06T01:02:58.154Z,4.15
2024-01-06T01:05:26.280Z,3.72
2024-01-06T01:07:54.856Z,3.53
2024-01-06T01:10:23.126Z,2.47
2024-01-06T01:12:51.317Z,10.65
2024-01-06T01:15:19.508Z,4.55
2024-01-06T01:17:49.350Z,2.45
2024-01-06T01:20:17.624Z,4.47
2024-01-06T01:22:45.850Z,6.45
2024-01-06T01:25:14.155Z,4.68
2024-01-06T01:27:42.259Z,6.10
2024-01-06T01:30:11.642Z,5.25
2024-01-06T01:32:40.227Z,3.80
2024-01-06T01:35:10.811Z,3.33
2024-01-06T01:37:39.001Z,3.47
2024-01-06T01:40:08.621Z,1.33
2024-01-06T01:42:36.741Z,6.63
2024-01-06T01:45:05.343Z,3.40
2024-01-06T01:47:33.679Z,3.75
2024-01-06T01:50:03.647Z,3.03
2024-01-06T01:52:34.113Z,2.75
2024-01-06T01:55:02.302Z,3.22
2024-01-06T01:57:30.940Z,3.05
2024-01-06T01:59:59.597Z,6.00
2024-01-06T02:02:29.049Z,3.15
2024-01-06T02:04:58.193Z,2.03
2024-01-06T02:07:26.512Z,2.50
2024-01-06T02:09:56.014Z,4.45
2024-01-06T02:12:24.192Z,11.90
2024-01-06T02:14:52.400Z,3.88
2024-01-06T02:21:30.924Z,5.07
2024-01-06T02:24:00.395Z,9.13
2024-01-06T02:26:31.361Z,3.75
2024-01-06T02:29:02.677Z,2.80
2024-01-06T02:31:31.113Z,2.40
2024-01-06T02:33:59.351Z,5.25
2024-01-06T02:36:27.568Z,2.80
2024-01-06T02:38:55.890Z,4.55
2024-01-06T02:41:25.399Z,3.05
2024-01-06T02:43:54.427Z,4.05
2024-01-06T02:46:22.550Z,6.10
2024-01-06T02:48:50.817Z,4.50
2024-01-06T02:51:19.129Z,4.30
2024-01-06T02:53:47.395Z,4.65
2024-01-06T02:56:15.816Z,7.00
2024-01-06T02:58:45.422Z,2.60
2024-01-06T03:01:16.894Z,3.80
2024-01-06T03:03:45.514Z,4.45
2024-01-06T03:06:13.723Z,2.45
2024-01-06T03:08:41.816Z,2.80
2024-01-06T03:11:09.967Z,2.60
2024-01-06T03:13:37.977Z,2.92
2024-01-06T03:16:07.917Z,3.28
2024-01-06T03:18:36.117Z,2.28
2024-01-06T03:21:15.789Z,3.83
2024-01-06T03:23:43.934Z,2.97
2024-01-06T03:26:12.029Z,5.00
2024-01-06T03:28:42.992Z,3.17
2024-01-06T03:31:12.800Z,2.58
2024-01-06T03:33:41.022Z,3.70
2024-01-06T03:36:14.603Z,3.45
2024-01-06T03:38:42.839Z,4.18
2024-01-06T03:41:10.973Z,4.30
2024-01-06T03:43:39.124Z,6.43
2024-01-06T03:46:07.525Z,3.38
2024-01-06T03:48:37.164Z,3.53
2024-01-06T03:51:06.210Z,5.30
2024-01-06T03:53:34.397Z,4.65
2024-01-06T03:56:02.574Z,3.38
2024-01-06T03:58:30.768Z,3.03
2024-01-06T04:00:58.962Z,4.88
2024-01-06T04:03:27.246Z,4.75
2024-01-06T04:05:56.735Z,2.60
2024-01-06T04:08:24.990Z,3.40
2024-01-06T04:10:53.062Z,3.75
2024-01-06T04:13:21.346Z,5.82
2024-01-06T04:15:55.232Z,4.32
2024-01-06T04:18:23.507Z,2.30
2024-01-06T04:20:51.624Z,4.60
2024-01-06T04:23:23.773Z,3.40
2024-01-06T04:25:56.290Z,2.20
2024-01-06T04:28:24.868Z,2.55
2024-01-06T04:30:53.894Z,7.45
2024-01-06T04:33:22.221Z,11.52
2024-01-06T04:35:51.332Z,4.40
2024-01-06T04:38:20.939Z,2.72
2024-01-06T04:40:49.163Z,3.28
2024-01-06T04:43:17.267Z,3.33
2024-01-06T04:45:45.739Z,9.95
2024-01-06T04:48:14.083Z,14.18
2024-01-06T04:50:42.428Z,2.20
2024-01-06T04:53:10.604Z,2.95
2024-01-06T04:55:40.188Z,1.90
2024-01-06T04:58:08.346Z,2.45
2024-01-06T05:00:37.361Z,3.88
2024-01-06T05:03:08.854Z,2.75
2024-01-06T05:05:37.049Z,2.67
2024-01-06T05:08:05.937Z,4.20
2024-01-06T05:10:36.596Z,3.80
2024-01-06T05:13:06.185Z,5.90
2024-01-06T05:15:34.439Z,2.55
2024-01-06T05:18:02.748Z,3.80
2024-01-06T05:20:30.947Z,5.53
2024-01-06T05:22:59.147Z,6.95
2024-01-06T05:25:27.400Z,3.40
2024-01-06T05:27:55.699Z,3.22
2024-01-06T05:30:25.465Z,7.55
2024-01-06T05:32:53.848Z,6.00
2024-01-06T05:35:22.109Z,4.13
2024-01-06T05:37:50.223Z,4.40
2024-01-06T05:40:18.407Z,9.63
2024-01-06T05:42:46.708Z,3.15
2024-01-06T05:45:18.069Z,4.78
2024-01-06T05:47:47.585Z,3.35
2024-01-06T05:50:17.375Z,5.45
2024-01-06T05:52:45.654Z,4.57
2024-01-06T05:55:15.637Z,6.03
2024-01-06T05:57:43.823Z,4.28
2024-01-06T06:00:13.220Z,3.63
2024-01-06T06:02:41.595Z,4.10
2024-01-06T06:05:11.446Z,4.75
2024-01-06T06:07:40.969Z,6.28
2024-01-06T06:10:10.751Z,4.07
2024-01-06T06:12:40.410Z,2.92
2024-01-06T06:15:09.825Z,4.05
2024-01-06T06:17:39.566Z,4.10
2024-01-06T06:20:08.653Z,3.38
2024-01-06T06:22:38.156Z,2.95
2024-01-06T06:25:31.946Z,3.75
2024-01-06T06:28:00.111Z,2.92
2024-01-06T06:30:28.373Z,4.30
2024-01-06T06:32:56.730Z,4.22
2024-01-06T06:35:25.553Z,3.08
2024-01-06T06:37:55.007Z,3.50
2024-01-06T06:40:23.123Z,3.72
2024-01-06T06:42:51.498Z,3.38
2024-01-06T06:45:45.033Z,2.58
2024-01-06T06:48:13.225Z,3.83
2024-01-06T06:50:42.376Z,2.13
2024-01-06T06:53:11.919Z,2.25
2024-01-06T06:55:40.622Z,2.13
2024-01-06T06:58:08.844Z,3.17
2024-01-06T07:00:38.184Z,3.05
2024-01-06T07:03:06.670Z,4.35
2024-01-06T07:05:34.957Z,2.47
2024-01-06T07:08:03.749Z,3.78
2024-01-06T07:10:33.301Z,4.05
2024-01-06T07:13:08.601Z,3.95
2024-01-06T07:15:36.896Z,4.68
2024-01-06T07:18:05.049Z,2.55
2024-01-06T07:20:33.281Z,4.47
2024-01-06T07:23:01.417Z,2.78
2024-01-06T07:25:33.450Z,3.42
2024-01-06T07:28:01.652Z,4.88
2024-01-06T07:30:29.820Z,1.85
2024-01-06T07:32:59.588Z,2.05
2024-01-06T07:35:27.709Z,4.18
2024-01-06T07:37:55.851Z,2.85
2024-01-06T07:40:24.708Z,2.40
2024-01-06T07:42:54.351Z,2.75
2024-01-06T07:45:22.844Z,3.25
2024-01-06T07:47:50.974Z,2.40
2024-01-06T07:50:19.244Z,3.35
2024-01-06T07:52:47.459Z,2.70
2024-01-06T07:55:15.605Z,2.88
2024-01-06T07:57:45.419Z,2.80
2024-01-06T08:00:16.314Z,2.30
2024-01-06T08:02:44.632Z,3.35
2024-01-06T08:05:15.821Z,3.17
2024-01-06T08:07:44.116Z,2.15
2024-01-06T08:10:12.324Z,2.67
2024-01-06T08:12:40.540Z,3.20
2024-01-06T08:15:10.488Z,3.95
2024-01-06T08:17:41.978Z,2.30
2024-01-06T08:20:10.995Z,2.85
2024-01-06T08:22:42.140Z,2.67
2024-01-06T08:25:14.770Z,3.55
2024-01-06T08:27:43.123Z,2.85
2024-01-06T08:30:11.923Z,4.40
2024-01-06T08:32:41.623Z,2.42
2024-01-06T08:35:10.521Z,2.10
2024-01-06T08:37:38.688Z,2.70
2024-01-06T08:40:08.292Z,2.08
2024-01-06T08:42:36.329Z,3.47
2024-01-06T08:45:06.164Z,3.20
2024-01-06T08:47:34.334Z,1.80
2024-01-06T08:50:04.199Z,2.10
2024-01-06T08:52:32.454Z,1.98
2024-01-06T08:55:02.312Z,2.75
2024-01-06T08:57:30.496Z,1.70
2024-01-06T09:00:21.006Z,2.92
2024-01-06T09:02:50.069Z,2.22
2024-01-06T09:05:19.607Z,4.22
2024-01-06T09:07:54.732Z,1.75
2024-01-06T09:10:23.864Z,2.45
2024-01-06T09:12:51.988Z,1.90
2024-01-06T09:15:22.305Z,2.28
2024-01-06T09:17:50.707Z,1.90
2024-01-06T09:20:24.084Z,1.92
2024-01-06T09:22:52.446Z,1.70
2024-01-06T09:25:20.786Z,1.70
2024-01-06T09:27:48.859Z,1.55
2024-01-06T09:30:17.317Z,1.52
2024-01-06T09:33:35.688Z,2.65
2024-01-06T09:36:05.982Z,1.80
2024-01-06T09:38:34.606Z,1.45
2024-01-06T09:41:02.769Z,5.78
2024-01-06T09:43:31.445Z,2.08
2024-01-06T09:46:07.767Z,1.90
2024-01-06T09:48:42.149Z,1.55
2024-01-06T09:51:13.761Z,4.30
2024-01-06T09:53:49.807Z,2.22
2024-01-06T09:56:18.665Z,2.50
2024-01-06T09:58:47.391Z,1.90
2024-01-06T10:01:16.869Z,2.90
2024-01-06T10:03:46.640Z,4.00
2024-01-06T10:06:17.544Z,2.65
2024-01-06T10:08:46.026Z,3.40
2024-01-06T10:11:15.721Z,2.35
2024-01-06T10:13:43.796Z,3.38
2024-01-06T10:16:12.048Z,2.10
2024-01-06T10:18:42.260Z,2.83
2024-01-06T10:21:10.592Z,2.90
2024-01-06T10:23:40.054Z,3.10
2024-01-06T10:26:08.104Z,4.82
2024-01-06T10:28:36.573Z,2.65
2024-01-06T10:31:04.897Z,2.53
2024-01-06T10:33:35.478Z,3.08
2024-01-06T10:36:04.359Z,3.00
2024-01-06T10:38:35.885Z,3.40
2024-01-06T10:41:08.525Z,3.95
2024-01-06T10:43:41.557Z,3.42
2024-01-06T10:46:11.960Z,3.00
2024-01-06T10:48:44.421Z,5.50
2024-01-06T10:51:14.913Z,2.85
2024-01-06T10:53:44.134Z,8.48
2024-01-06T10:56:14.013Z,3.75
2024-01-06T10:58:49.243Z,3.67
2024-01-06T11:01:23.238Z,4.55
2024-01-06T11:03:57.267Z,5.60
2024-01-06T11:06:36.880Z,4.05
2024-01-06T11:09:23.763Z,4.80
2024-01-06T11:12:03.937Z,4.05
2024-01-06T11:14:46.609Z,4.20
2024-01-06T11:18:00.134Z,4.20
2024-01-06T11:20:30.636Z,4.50
2024-01-06T11:23:21.579Z,5.88
2024-01-06T11:25:51.438Z,5.18
2024-01-06T11:28:22.009Z,4.00
2024-01-06T11:31:07.990Z,4.32
2024-01-06T11:33:45.936Z,4.10
2024-01-06T11:36:21.776Z,7.53
2024-01-06T11:38:57.595Z,4.15
2024-01-06T11:42:02.124Z,3.45
2024-01-06T11:44:44.509Z,4.18
2024-01-06T11:47:24.488Z,4.13
2024-01-06T11:50:00.889Z,5.32
2024-01-06T11:52:35.601Z,4.28
2024-01-06T11:55:04.416Z,6.07
2024-01-06T11:57:33.842Z,4.07
2024-01-06T12:00:05.850Z,3.75
2024-01-06T12:02:35.417Z,5.95
2024-01-06T12:05:06.665Z,5.20
2024-01-06T12:07:38.442Z,5.10
2024-01-06T12:10:11.647Z,5.80
2024-01-06T12:12:43.002Z,4.43
2024-01-06T12:15:14.291Z,5.95
2024-01-06T12:17:46.153Z,4.40
2024-01-06T12:20:18.147Z,5.22
2024-01-06T12:22:47.873Z,5.25
2024-01-06T12:25:17.835Z,6.38
2024-01-06T12:27:47.702Z,6.72
2024-01-06T12:30:20.616Z,5.20
2024-01-06T12:32:51.211Z,6.85
2024-01-06T12:35:20.265Z,7.47
2024-01-06T12:37:48.518Z,9.30
2024-01-06T12:40:18.728Z,6.68
2024-01-06T12:42:47.609Z,6.85
2024-01-06T12:45:22.859Z,5.78
2024-01-06T12:47:58.482Z,6.75
2024-01-06T12:50:37.318Z,5.68
2024-01-06T12:53:16.229Z,4.97
2024-01-06T12:55:47.709Z,8.80
2024-01-06T12:58:17.283Z,6.75
2024-01-06T13:00:47.639Z,3.63
2024-01-06T13:03:18.382Z,4.85
2024-01-06T13:05:49.079Z,5.28
2024-01-06T13:08:17.570Z,4.28
2024-01-06T13:10:48.144Z,5.82
2024-01-06T13:13:19.291Z,5.05
2024-01-06T13:15:48.911Z,4.38
2024-01-06T13:18:18.021Z,3.38
2024-01-06T13:20:46.318Z,3.35
2024-01-06T13:23:14.360Z,4.30
2024-01-06T13:25:42.484Z,5.97
2024-01-06T13:28:10.641Z,4.72
2024-01-06T13:30:40.731Z,5.20
2024-01-06T13:33:11.740Z,5.82
2024-01-06T13:35:40.087Z,6.18
2024-01-06T13:38:13.523Z,5.47
2024-01-06T13:40:42.674Z,5.10
2024-01-06T13:43:16.497Z,6.55
2024-01-06T13:45:46.152Z,6.57
2024-01-06T13:48:15.892Z,5.75
2024-01-06T13:50:44.442Z,7.72
2024-01-06T13:53:12.652Z,6.60
2024-01-06T13:55:40.880Z,8.30
2024-01-06T13:58:10.490Z,7.38
2024-01-06T14:00:38.772Z,6.80
2024-01-06T14:03:08.953Z,7.75
2024-01-06T14:05:39.003Z,8.73
2024-01-06T14:08:08.289Z,6.35
2024-01-06T14:10:39.040Z,7.00
2024-01-06T14:13:08.860Z,9.70
2024-01-06T14:15:37.419Z,6.90
2024-01-06T14:18:06.669Z,8.07
2024-01-06T14:20:39.099Z,8.18
2024-01-06T14:23:09.744Z,10.82
2024-01-06T14:25:38.019Z,11.30
2024-01-06T14:28:07.269Z,10.00
2024-01-06T14:30:35.642Z,7.57
2024-01-06T14:33:04.176Z,6.93
2024-01-06T14:35:32.395Z,8.15
2024-01-06T14:38:00.618Z,9.85
2024-01-06T14:40:30.020Z,8.57
2024-01-06T14:42:58.825Z,8.57
2024-01-06T14:45:27.139Z,10.27
2024-01-06T14:47:55.636Z,9.73
2024-01-06T14:50:24.902Z,9.00
2024-01-06T14:52:52.997Z,9.95
2024-01-06T14:55:21.100Z,8.88
2024-01-06T14:57:50.715Z,8.63
2024-01-06T15:00:19.375Z,10.95
2024-01-06T15:02:47.967Z,9.55
2024-01-06T15:05:19.246Z,9.63
2024-01-06T15:07:47.737Z,9.55
2024-01-06T15:10:16.944Z,11.15
2024-01-06T15:12:45.160Z,14.68
2024-01-06T15:15:18.391Z,10.75
2024-01-06T15:17:49.465Z,11.10
2024-01-06T15:20:17.721Z,11.38
2024-01-06T15:22:46.150Z,11.00
2024-01-06T15:25:14.324Z,9.95
2024-01-06T15:27:44.495Z,13.85
2024-01-06T15:30:19.197Z,10.75
2024-01-06T15:32:48.659Z,9.63
2024-01-06T15:35:16.831Z,10.23
2024-01-06T15:37:44.971Z,10.98
2024-01-06T15:40:13.436Z,10.68
2024-01-06T15:42:41.915Z,9.60
2024-01-06T15:45:12.636Z,10.88
2024-01-06T15:47:42.347Z,12.75
2024-01-06T15:50:13.142Z,8.48
2024-01-06T15:52:42.474Z,7.93
2024-01-06T15:55:11.547Z,8.60
2024-01-06T15:57:41.577Z,8.90
2024-01-06T16:00:13.191Z,10.63
2024-01-06T16:02:42.813Z,11.30
2024-01-06T16:05:11.471Z,10.50
2024-01-06T16:07:44.519Z,10.45
2024-01-06T16:10:13.471Z,11.88
2024-01-06T16:12:43.260Z,9.98
2024-01-06T16:15:12.097Z,10.82
2024-01-06T16:17:40.317Z,10.85
2024-01-06T16:20:11.171Z,11.32
2024-01-06T16:22:39.363Z,11.82
2024-01-06T16:25:08.079Z,12.70
2024-01-06T16:27:36.515Z,9.43
2024-01-06T16:30:05.642Z,15.40
2024-01-06T16:32:33.881Z,14.40
2024-01-06T16:35:02.776Z,10.80
2024-01-06T16:37:33.207Z,12.75
2024-01-06T16:40:01.565Z,10.75
2024-01-06T16:42:29.925Z,13.68
2024-01-06T16:44:58.150Z,11.20
2024-01-06T16:47:26.614Z,10.73
2024-01-06T16:49:54.810Z,11.25
2024-01-06T16:52:22.984Z,9.45
2024-01-06T16:54:52.779Z,10.70
2024-01-06T16:57:21.228Z,9.52
2024-01-06T16:59:49.421Z,10.82
2024-01-06T17:02:17.649Z,13.13
2024-01-06T17:04:46.101Z,14.50
2024-01-06T17:07:14.770Z,16.92
2024-01-06T17:09:45.538Z,13.82
2024-01-06T17:12:15.174Z,15.05
2024-01-06T17:14:43.354Z,20.25
2024-01-06T17:17:11.591Z,18.52
2024-01-06T17:19:39.921Z,17.70
2024-01-06T17:22:10.924Z,16.33
2024-01-06T17:24:39.239Z,18.40
2024-01-06T17:27:07.514Z,15.50
2024-01-06T17:29:37.035Z,17.13
2024-01-06T17:32:05.978Z,15.30
2024-01-06T17:34:34.358Z,17.95
2024-01-06T17:37:02.691Z,19.42
2024-01-06T17:39:30.910Z,18.40
2024-01-06T17:42:01.549Z,12.05
2024-01-06T17:44:30.621Z,12.82
2024-01-06T17:47:00.280Z,17.10
2024-01-06T17:49:28.581Z,17.00
2024-01-06T17:51:57.020Z,19.48
2024-01-06T17:54:25.188Z,17.27
2024-01-06T17:56:54.384Z,18.33
2024-01-06T17:59:25.621Z,16.75
2024-01-06T18:01:53.778Z,17.40
2024-01-06T18:04:23.448Z,20.10
2024-01-06T18:06:51.814Z,25.02
2024-01-06T18:09:20.542Z,18.75
2024-01-06T18:11:49.121Z,22.48
2024-01-06T18:14:17.381Z,24.35
2024-01-06T18:16:45.533Z,21.00
2024-01-06T18:19:13.809Z,22.05
2024-01-06T18:21:43.897Z,19.30
2024-01-06T18:24:15.442Z,19.00
2024-01-06T18:26:43.598Z,22.02
2024-01-06T18:29:13.791Z,18.30
2024-01-06T18:31:42.104Z,21.10
2024-01-06T18:34:10.396Z,18.73
2024-01-06T18:36:38.598Z,16.98
2024-01-06T18:39:08.805Z,19.17
2024-01-06T18:41:37.117Z,18.67
2024-01-06T18:44:10.648Z,17.08
2024-01-06T18:46:39.912Z,20.58
2024-01-06T18:49:09.194Z,23.30
2024-01-06T18:51:39.638Z,19.95
2024-01-06T18:54:16.407Z,32.28
2024-01-06T18:56:47.870Z,21.70
2024-01-06T18:59:16.128Z,20.58
2024-01-06T19:01:45.074Z,17.70
2024-01-06T19:04:13.689Z,24.95
2024-01-06T19:06:41.880Z,22.85
2024-01-06T19:09:16.683Z,25.65
2024-01-06T19:11:44.959Z,25.25
2024-01-06T19:14:13.149Z,33.53
2024-01-06T19:16:46.879Z,31.23
2024-01-06T19:19:16.200Z,25.90
2024-01-06T19:21:45.582Z,30.27
2024-01-06T19:24:23.830Z,26.02
2024-01-06T19:26:57.159Z,31.23
2024-01-06T19:29:27.254Z,30.55
2024-01-06T19:31:55.735Z,32.03
2024-01-06T19:34:24.173Z,29.70
2024-01-06T19:36:53.011Z,23.85
2024-01-06T19:39:23.633Z,23.00
2024-01-06T19:41:57.831Z,26.85
2024-01-06T19:44:28.575Z,22.02
2024-01-06T19:47:03.283Z,22.77
2024-01-06T19:49:35.426Z,23.35
2024-01-06T19:52:07.151Z,31.17
2024-01-06T19:54:40.111Z,24.77
2024-01-06T19:57:11.486Z,30.65
2024-01-06T19:59:41.256Z,37.53
2024-01-06T20:02:12.252Z,25.10
2024-01-06T20:04:44.138Z,23.48
2024-01-06T20:07:17.422Z,27.23
2024-01-06T20:09:51.161Z,24.08
2024-01-06T20:12:23.343Z,25.05
2024-01-06T20:14:53.121Z,21.35
2024-01-06T20:17:28.050Z,18.35
2024-01-06T20:20:02.845Z,33.72
2024-01-06T20:22:38.257Z,18.67
2024-01-06T20:25:13.549Z,21.75
2024-01-06T20:27:43.123Z,22.80
2024-01-06T20:30:14.339Z,18.70
2024-01-06T20:32:46.950Z,20.73
2024-01-06T20:35:17.494Z,21.70
2024-01-06T20:37:49.987Z,22.92
2024-01-06T20:40:24.741Z,22.23
2024-01-06T20:42:57.524Z,24.00
2024-01-06T20:45:29.016Z,19.42
2024-01-06T20:47:59.783Z,29.00
2024-01-06T20:50:28.574Z,23.13
2024-01-06T20:52:56.763Z,21.35
2024-01-06T20:55:26.338Z,18.35
2024-01-06T20:57:54.649Z,17.92
2024-01-06T21:00:22.976Z,26.00
2024-01-06T21:02:54.379Z,18.15
2024-01-06T21:05:22.854Z,19.48
2024-01-06T21:07:51.116Z,15.30
2024-01-06T21:10:19.524Z,16.80
2024-01-06T21:12:49.166Z,20.40
2024-01-06T21:15:17.679Z,18.25
2024-01-06T21:17:45.973Z,21.42
2024-01-06T21:20:14.582Z,20.15
2024-01-06T21:22:44.444Z,21.65
2024-01-06T21:25:14.594Z,19.98
2024-01-06T21:27:43.806Z,18.65
2024-01-06T21:30:13.748Z,22.70
2024-01-06T21:32:41.981Z,23.48
2024-01-06T21:35:10.249Z,22.80
2024-01-06T21:37:39.730Z,24.00
2024-01-06T21:40:09.892Z,24.35
2024-01-06T21:42:40.201Z,21.65
2024-01-06T21:45:08.947Z,27.25
2024-01-06T21:47:39.686Z,20.92
2024-01-06T21:50:12.232Z,24.83
2024-01-06T21:52:46.674Z,29.73
2024-01-06T21:55:22.696Z,20.35
2024-01-06T21:58:02.442Z,20.35
2024-01-06T22:00:33.624Z,23.25
2024-01-06T22:03:04.176Z,25.55
2024-01-06T22:05:32.401Z,23.67
2024-01-06T22:08:00.621Z,25.00
2024-01-06T22:10:33.571Z,22.77
2024-01-06T22:13:02.187Z,26.83
2024-01-06T22:15:33.316Z,22.00
2024-01-06T22:18:05.099Z,32.22
2024-01-06T22:20:33.531Z,25.27
2024-01-06T22:23:01.665Z,26.77
2024-01-06T22:25:29.904Z,27.67
2024-01-06T22:27:58.104Z,31.88
2024-01-06T22:30:26.786Z,34.90
2024-01-06T22:32:55.085Z,56.80
2024-01-06T22:35:24.616Z,34.78
2024-01-06T22:37:52.717Z,24.55
2024-01-06T22:40:21.767Z,73.78
2024-01-06T22:42:51.565Z,51.58
2024-01-06T22:45:19.757Z,65.93
2024-01-06T22:47:48.230Z,82.25
2024-01-06T22:50:16.729Z,39.88
2024-01-06T22:52:46.420Z,74.05
2024-01-06T22:55:14.734Z,74.60
2024-01-06T22:57:42.946Z,62.65
2024-01-06T23:00:17.003Z,37.67
2024-01-06T23:02:46.078Z,19.85
2024-01-06T23:05:14.585Z,199.48
2024-01-06T23:07:42.678Z,234.98
2024-01-06T23:10:13.233Z,35.80
2024-01-06T23:12:41.468Z,127.85
2024-01-06T23:15:11.482Z,25.92
2024-01-06T23:17:39.809Z,183.95
2024-01-06T23:20:08.568Z,169.25
2024-01-06T23:22:36.655Z,36.08
2024-01-06T23:25:05.228Z,56.03
2024-01-06T23:27:34.793Z,63.50
2024-01-06T23:30:03.514Z,33.97
2024-01-06T23:32:32.290Z,34.50
2024-01-06T23:35:00.685Z,26.65
2024-01-06T23:37:28.837Z,26.77
2024-01-06T23:40:00.075Z,20.98
2024-01-06T23:42:28.352Z,22.50
2024-01-06T23:44:57.945Z,21.48
2024-01-06T23:47:27.782Z,18.48
2024-01-06T23:49:55.969Z,18.95
2024-01-06T23:52:24.344Z,21.95
2024-01-06T23:54:52.466Z,25.05
2024-01-06T23:57:20.844Z,95.05
2024-01-06T23:59:49.001Z,28.40
